createdAt,value
2018-01-26T00:00:52.308Z,97467
2018-01-26T00:03:19.060Z,97464
2018-01-26T00:05:45.739Z,97469
2018-01-26T00:08:12.430Z,97465
2018-01-26T00:10:39.880Z,97465
2018-01-26T00:13:07.327Z,97464
2018-01-26T00:15:34.088Z,97457
2018-01-26T00:18:01.513Z,97462
2018-01-26T00:20:28.212Z,97459
2018-01-26T00:22:54.894Z,97462
2018-01-26T00:25:21.612Z,97452
2018-01-26T00:27:48.400Z,97453
2018-01-26T00:30:15.116Z,97454
2018-01-26T00:32:43.428Z,97453
2018-01-26T00:35:10.156Z,97452
2018-01-26T00:37:36.854Z,97453
2018-01-26T00:40:03.575Z,97449
2018-01-26T00:42:31.043Z,97452
2018-01-26T00:44:58.511Z,97453
2018-01-26T00:47:25.897Z,97453
2018-01-26T00:49:52.594Z,97450
2018-01-26T00:52:19.255Z,97439
2018-01-26T00:54:46.688Z,97437
2018-01-26T00:57:13.405Z,97442
2018-01-26T00:59:40.096Z,97436
2018-01-26T01:02:07.618Z,97437
2018-01-26T01:04:34.297Z,97439
2018-01-26T01:07:01.805Z,97442
2018-01-26T01:09:28.480Z,97442
2018-01-26T01:11:55.196Z,97434
2018-01-26T01:14:21.843Z,97432
2018-01-26T01:16:48.518Z,97437
2018-01-26T01:19:15.214Z,97436
2018-01-26T01:21:41.956Z,97438
2018-01-26T01:24:08.627Z,97437
2018-01-26T01:26:35.314Z,97432
2018-01-26T01:29:02.755Z,97432
2018-01-26T01:31:29.417Z,97428
2018-01-26T01:33:56.817Z,97431
2018-01-26T01:36:23.494Z,97429
2018-01-26T01:38:50.172Z,97443
2018-01-26T01:41:16.878Z,97437
2018-01-26T01:43:43.574Z,97433
2018-01-26T01:46:10.218Z,97440
2018-01-26T01:48:36.919Z,97433
2018-01-26T01:51:04.365Z,97434
2018-01-26T01:53:31.022Z,97430
2018-01-26T01:55:58.473Z,97424
2018-01-26T01:58:25.133Z,97422
2018-01-26T02:00:52.649Z,97417
2018-01-26T02:03:19.348Z,97414
2018-01-26T02:05:46.753Z,97415
2018-01-26T02:08:13.469Z,97411
2018-01-26T02:10:40.150Z,97416
2018-01-26T02:13:06.839Z,97418
2018-01-26T02:15:33.532Z,97413
2018-01-26T02:18:00.201Z,97408
2018-01-26T02:20:26.968Z,97408
2018-01-26T02:22:54.415Z,97405
2018-01-26T02:25:21.811Z,97416
2018-01-26T02:27:48.515Z,97410
2018-01-26T02:30:15.945Z,97402
2018-01-26T02:32:42.647Z,97405
2018-01-26T02:35:09.322Z,97399
2018-01-26T02:37:36.007Z,97403
2018-01-26T02:40:03.469Z,97400
2018-01-26T02:42:30.894Z,97390
2018-01-26T02:44:57.634Z,97396
2018-01-26T02:47:24.321Z,97396
2018-01-26T02:49:51.731Z,97405
2018-01-26T02:52:18.434Z,97406
2018-01-26T02:54:45.876Z,97410
2018-01-26T02:57:13.286Z,97414
2018-01-26T02:59:39.955Z,97416
2018-01-26T03:02:06.654Z,97411
2018-01-26T03:04:33.300Z,97405
2018-01-26T03:06:59.971Z,97406
2018-01-26T03:09:26.670Z,97409
2018-01-26T03:11:53.370Z,97410
2018-01-26T03:14:20.055Z,97412
2018-01-26T03:16:47.481Z,97416
2018-01-26T03:19:14.152Z,97415
2018-01-26T03:21:41.559Z,97418
2018-01-26T03:24:08.245Z,97414
2018-01-26T03:26:35.653Z,97419
2018-01-26T03:29:02.366Z,97418
2018-01-26T03:31:29.050Z,97421
2018-01-26T03:33:55.742Z,97419
2018-01-26T03:36:23.133Z,97420
2018-01-26T03:38:49.819Z,97418
2018-01-26T03:41:16.506Z,97419
2018-01-26T03:43:50.210Z,97420
2018-01-26T03:46:16.873Z,97420
2018-01-26T03:48:43.551Z,97424
2018-01-26T03:51:10.281Z,97429
2018-01-26T03:53:36.943Z,97426
2018-01-26T03:56:03.626Z,97429
2018-01-26T03:58:30.294Z,97424
2018-01-26T04:00:56.958Z,97413
2018-01-26T04:03:23.655Z,97416
2018-01-26T04:05:50.326Z,97416
2018-01-26T04:08:16.997Z,97411
2018-01-26T04:10:43.704Z,97417
2018-01-26T04:13:10.389Z,97417
2018-01-26T04:15:37.094Z,97414
2018-01-26T04:18:03.802Z,97414
2018-01-26T04:20:31.276Z,97417
2018-01-26T04:22:57.940Z,97421
2018-01-26T04:25:24.633Z,97425
2018-01-26T04:27:52.054Z,97425
2018-01-26T04:30:18.852Z,97426
2018-01-26T04:32:46.315Z,97426
2018-01-26T04:35:13.720Z,97431
2018-01-26T04:37:40.384Z,97435
2018-01-26T04:40:07.110Z,97443
2018-01-26T04:42:33.838Z,97447
2018-01-26T04:45:00.489Z,97452
2018-01-26T04:47:27.177Z,97459
2018-01-26T04:49:54.557Z,97457
2018-01-26T04:52:21.246Z,97457
2018-01-26T04:54:47.924Z,97463
2018-01-26T04:57:15.340Z,97466
2018-01-26T04:59:42.011Z,97463
2018-01-26T05:02:08.692Z,97465
2018-01-26T05:04:35.423Z,97455
2018-01-26T05:07:02.833Z,97454
2018-01-26T05:09:29.558Z,97459
2018-01-26T05:11:56.224Z,97461
2018-01-26T05:14:22.907Z,97467
2018-01-26T05:16:50.468Z,97472
2018-01-26T05:19:17.186Z,97468
2018-01-26T05:21:43.870Z,97474
2018-01-26T05:24:10.568Z,97481
2018-01-26T05:26:37.246Z,97488
2018-01-26T05:29:04.726Z,97486
2018-01-26T05:31:31.527Z,97487
2018-01-26T05:33:58.207Z,97484
2018-01-26T05:36:24.879Z,97488
2018-01-26T05:38:51.585Z,97489
2018-01-26T05:41:19.115Z,97495
2018-01-26T05:43:45.897Z,97495
2018-01-26T05:46:12.569Z,97492
2018-01-26T05:48:40.149Z,97493
2018-01-26T05:51:06.850Z,97495
2018-01-26T05:53:34.424Z,97490
2018-01-26T05:56:01.137Z,97492
2018-01-26T05:58:27.814Z,97492
2018-01-26T06:00:54.595Z,97494
2018-01-26T06:03:21.324Z,97493
2018-01-26T06:05:48.033Z,97493
2018-01-26T06:08:14.752Z,97497
2018-01-26T06:10:42.192Z,97493
2018-01-26T06:13:08.960Z,97493
2018-01-26T06:15:36.427Z,97496
2018-01-26T06:18:03.948Z,97502
2018-01-26T06:20:30.643Z,97503
2018-01-26T06:22:58.087Z,97505
2018-01-26T06:25:25.571Z,97519
2018-01-26T06:27:52.342Z,97517
2018-01-26T06:30:19.113Z,97515
2018-01-26T06:32:45.850Z,97516
2018-01-26T06:35:12.522Z,97510
2018-01-26T06:37:39.226Z,97507
2018-01-26T06:40:05.889Z,97517
2018-01-26T06:42:32.950Z,97519
2018-01-26T06:44:59.653Z,97527
2018-01-26T06:47:26.342Z,97536
2018-01-26T06:49:53.054Z,97535
2018-01-26T06:52:19.753Z,97537
2018-01-26T06:54:47.220Z,97532
2018-01-26T06:57:13.917Z,97532
2018-01-26T06:59:40.588Z,97526
2018-01-26T07:02:08.042Z,97541
2018-01-26T07:04:35.458Z,97535
2018-01-26T07:07:02.167Z,97540
2018-01-26T07:09:31.544Z,97545
2018-01-26T07:11:58.205Z,97551
2018-01-26T07:14:32.052Z,97544
2018-01-26T07:16:58.787Z,97539
2018-01-26T07:19:25.478Z,97541
2018-01-26T07:21:52.167Z,97545
2018-01-26T07:24:18.850Z,97549
2018-01-26T07:26:45.543Z,97552
2018-01-26T07:29:12.252Z,97557
2018-01-26T07:31:38.957Z,97565
2018-01-26T07:34:06.177Z,97567
2018-01-26T07:36:33.590Z,97563
2018-01-26T07:39:00.291Z,97568
2018-01-26T07:41:26.961Z,97569
2018-01-26T07:43:53.663Z,97575
2018-01-26T07:46:21.090Z,97577
2018-01-26T07:48:48.023Z,97581
2018-01-26T07:51:14.797Z,97584
2018-01-26T07:53:41.462Z,97587
2018-01-26T07:56:08.867Z,97584
2018-01-26T07:58:35.594Z,97597
2018-01-26T08:01:02.314Z,97594
2018-01-26T08:03:29.730Z,97590
2018-01-26T08:05:56.513Z,97585
2018-01-26T08:08:24.024Z,97582
2018-01-26T08:10:50.772Z,97583
2018-01-26T08:13:17.451Z,97578
2018-01-26T08:15:44.950Z,97571
2018-01-26T08:18:11.614Z,97575
2018-01-26T08:20:38.314Z,97574
2018-01-26T08:23:05.094Z,97570
2018-01-26T08:25:31.811Z,97571
2018-01-26T08:27:58.536Z,97567
2018-01-26T08:30:26.072Z,97569
2018-01-26T08:32:53.798Z,97574
2018-01-26T08:35:27.669Z,97579
2018-01-26T08:37:54.492Z,97571
2018-01-26T08:40:21.276Z,97572
2018-01-26T08:42:49.385Z,97576
2018-01-26T08:45:16.101Z,97579
2018-01-26T08:47:42.810Z,97585
2018-01-26T08:50:09.607Z,97589
2018-01-26T08:52:36.292Z,97591
2018-01-26T08:55:03.112Z,97593
2018-01-26T08:57:29.861Z,97595
2018-01-26T08:59:56.616Z,97592
2018-01-26T09:02:23.393Z,97599
2018-01-26T09:17:50.335Z,97607
2018-01-26T09:20:17.089Z,97606
2018-01-26T09:22:43.809Z,97609
2018-01-26T09:25:10.562Z,97617
2018-01-26T09:27:37.306Z,97622
2018-01-26T09:30:04.097Z,97624
2018-01-26T09:32:30.827Z,97621
2018-01-26T09:34:58.301Z,97617
2018-01-26T09:37:25.776Z,97614
2018-01-26T09:39:52.586Z,97606
2018-01-26T09:42:19.309Z,97614
2018-01-26T09:44:45.989Z,97615
2018-01-26T09:47:13.460Z,97610
2018-01-26T09:49:40.220Z,97603
2018-01-26T09:52:06.921Z,97612
2018-01-26T09:54:33.653Z,97608
2018-01-26T09:57:00.381Z,97605
2018-01-26T09:59:27.095Z,97609
2018-01-26T10:01:53.815Z,97612
2018-01-26T10:04:20.571Z,97608
2018-01-26T10:06:47.262Z,97610
2018-01-26T10:09:14.076Z,97611
2018-01-26T10:11:40.754Z,97611
2018-01-26T10:14:07.469Z,97609
2018-01-26T10:16:34.170Z,97616
2018-01-26T10:19:01.577Z,97610
2018-01-26T10:21:28.310Z,97613
2018-01-26T10:23:54.981Z,97614
2018-01-26T10:26:21.683Z,97610
2018-01-26T10:28:48.415Z,97615
2018-01-26T10:31:15.184Z,97613
2018-01-26T10:33:41.854Z,97608
2018-01-26T10:36:08.642Z,97603
2018-01-26T10:38:36.060Z,97610
2018-01-26T10:41:03.474Z,97611
2018-01-26T10:43:30.166Z,97612
2018-01-26T10:45:56.854Z,97609
2018-01-26T10:48:24.300Z,97610
2018-01-26T10:50:51.745Z,97618
2018-01-26T10:53:18.431Z,97613
2018-01-26T10:55:45.119Z,97616
2018-01-26T10:58:11.837Z,97610
2018-01-26T11:00:38.580Z,97614
2018-01-26T11:03:05.308Z,97610
2018-01-26T11:05:31.999Z,97608
2018-01-26T11:07:58.729Z,97606
2018-01-26T11:10:25.442Z,97609
2018-01-26T11:12:52.145Z,97605
2018-01-26T11:15:18.886Z,97607
2018-01-26T11:17:45.560Z,97603
2018-01-26T11:20:12.353Z,97598
2018-01-26T11:22:39.124Z,97598
2018-01-26T11:25:06.564Z,97595
2018-01-26T11:27:33.286Z,97600
2018-01-26T11:29:59.986Z,97602
2018-01-26T11:32:27.412Z,97601
2018-01-26T11:34:54.115Z,97604
2018-01-26T11:37:20.823Z,97605
2018-01-26T11:39:48.356Z,97606
2018-01-26T11:42:15.042Z,97606
2018-01-26T11:44:42.463Z,97601
2018-01-26T11:47:09.153Z,97598
2018-01-26T11:49:35.826Z,97602
2018-01-26T11:52:02.517Z,97598
2018-01-26T11:54:29.976Z,97591
2018-01-26T11:56:57.415Z,97591
2018-01-26T11:59:24.499Z,97594
2018-01-26T12:01:51.939Z,97590
2018-01-26T12:04:18.717Z,97586
2018-01-26T12:06:47.189Z,97583
2018-01-26T12:09:14.679Z,97588
2018-01-26T12:11:41.446Z,97584
2018-01-26T12:14:08.209Z,97585
2018-01-26T12:16:35.026Z,97583
2018-01-26T12:19:01.846Z,97584
2018-01-26T12:21:28.603Z,97581
2018-01-26T12:23:55.327Z,97577
2018-01-26T12:26:22.778Z,97575
2018-01-26T12:28:50.244Z,97571
2018-01-26T12:31:18.840Z,97576
2018-01-26T12:33:45.888Z,97577
2018-01-26T12:36:13.354Z,97578
2018-01-26T12:38:40.048Z,97582
2018-01-26T12:41:07.827Z,97580
2018-01-26T12:43:34.503Z,97570
2018-01-26T12:59:21.698Z,97561
2018-01-26T13:01:48.451Z,97559
2018-01-26T13:04:15.174Z,97566
2018-01-26T13:06:42.076Z,97568
2018-01-26T13:09:09.509Z,97562
2018-01-26T13:11:36.178Z,97561
2018-01-26T13:14:03.651Z,97563
2018-01-26T13:16:30.338Z,97554
2018-01-26T13:18:57.154Z,97559
2018-01-26T13:21:24.923Z,97559
2018-01-26T13:23:51.639Z,97572
2018-01-26T13:26:19.142Z,97567
2018-01-26T13:28:45.839Z,97565
2018-01-26T13:31:13.335Z,97565
2018-01-26T13:33:40.053Z,97571
2018-01-26T13:36:06.830Z,97567
2018-01-26T13:38:33.529Z,97571
2018-01-26T13:41:01.000Z,97576
2018-01-26T13:43:28.580Z,97576
2018-01-26T13:45:55.318Z,97577
2018-01-26T13:48:22.038Z,97584
2018-01-26T13:50:49.539Z,97585
2018-01-26T13:53:16.284Z,97584
2018-01-26T13:55:43.084Z,97587
2018-01-26T13:58:09.847Z,97586
2018-01-26T14:00:39.475Z,97587
2018-01-26T14:03:06.218Z,97592
2018-01-26T14:05:33.014Z,97592
2018-01-26T14:07:59.687Z,97586
2018-01-26T14:10:27.107Z,97583
2018-01-26T14:12:53.866Z,97583
2018-01-26T14:15:20.644Z,97588
2018-01-26T14:17:47.362Z,97591
2018-01-26T14:20:14.027Z,97594
2018-01-26T14:22:41.488Z,97605
2018-01-26T14:25:08.951Z,97600
2018-01-26T14:27:35.737Z,97610
2018-01-26T14:30:02.434Z,97608
2018-01-26T14:32:29.862Z,97613
2018-01-26T14:34:56.592Z,97623
2018-01-26T14:37:23.296Z,97618
2018-01-26T14:39:49.989Z,97619
2018-01-26T14:42:16.669Z,97614
2018-01-26T14:44:43.397Z,97607
2018-01-26T14:47:10.112Z,97608
2018-01-26T14:49:36.824Z,97610
2018-01-26T14:52:03.507Z,97619
2018-01-26T14:54:30.198Z,97626
2018-01-26T14:56:56.901Z,97623
2018-01-26T14:59:23.561Z,97624
2018-01-26T15:01:51.033Z,97629
2018-01-26T15:04:18.454Z,97630
2018-01-26T15:06:45.137Z,97638
2018-01-26T15:09:12.600Z,97639
2018-01-26T15:11:40.069Z,97637
2018-01-26T15:14:06.800Z,97643
2018-01-26T15:16:33.485Z,97641
2018-01-26T15:19:00.237Z,97646
2018-01-26T15:21:26.939Z,97644
2018-01-26T15:23:54.341Z,97641
2018-01-26T15:26:21.045Z,97648
2018-01-26T15:28:47.838Z,97644
2018-01-26T15:31:14.552Z,97656
2018-01-26T15:33:41.343Z,97649
2018-01-26T15:36:08.104Z,97644
2018-01-26T15:38:35.607Z,97652
2018-01-26T15:41:02.322Z,97638
2018-01-26T15:43:29.750Z,97646
2018-01-26T15:45:56.501Z,97648
2018-01-26T15:48:23.173Z,97652
2018-01-26T15:50:49.932Z,97667
2018-01-26T15:53:16.659Z,97662
2018-01-26T15:55:44.150Z,97663
2018-01-26T15:58:10.851Z,97662
2018-01-26T16:00:38.274Z,97665
2018-01-26T16:03:05.017Z,97671
2018-01-26T16:05:31.697Z,97674
2018-01-26T16:07:59.166Z,97674
2018-01-26T16:10:26.626Z,97672
2018-01-26T16:12:54.097Z,97675
2018-01-26T16:15:21.679Z,97680
2018-01-26T16:17:48.410Z,97684
2018-01-26T16:20:15.201Z,97690
2018-01-26T16:22:41.990Z,97691
2018-01-26T16:25:09.515Z,97695
2018-01-26T16:27:36.310Z,97692
2018-01-26T16:30:03.130Z,97696
2018-01-26T16:32:29.978Z,97706
2018-01-26T16:34:56.781Z,97706
2018-01-26T16:37:23.470Z,97710
2018-01-26T16:39:50.914Z,97711
2018-01-26T16:42:17.698Z,97717
2018-01-26T16:44:44.431Z,97718
2018-01-26T16:47:12.048Z,97714
2018-01-26T16:49:38.738Z,97714
2018-01-26T16:52:05.457Z,97717
2018-01-26T16:54:32.191Z,97717
2018-01-26T16:56:58.907Z,97723
2018-01-26T16:59:25.630Z,97725
2018-01-26T17:01:52.367Z,97731
2018-01-26T17:04:19.148Z,97731
2018-01-26T17:06:48.009Z,97734
2018-01-26T17:09:16.868Z,97740
2018-01-26T17:11:43.632Z,97742
2018-01-26T17:14:11.058Z,97744
2018-01-26T17:16:37.896Z,97746
2018-01-26T17:19:04.719Z,97748
2018-01-26T17:21:31.477Z,97750
2018-01-26T17:23:58.301Z,97750
2018-01-26T17:26:24.997Z,97752
2018-01-26T17:28:52.478Z,97752
2018-01-26T17:31:19.914Z,97755
2018-01-26T17:33:46.608Z,97756
2018-01-26T17:36:13.310Z,97758
2018-01-26T17:38:40.067Z,97758
2018-01-26T17:41:09.635Z,97753
2018-01-26T17:43:38.419Z,97753
2018-01-26T17:46:10.215Z,97753
2018-01-26T17:48:36.959Z,97755
2018-01-26T17:51:03.664Z,97750
2018-01-26T17:53:30.431Z,97755
2018-01-26T17:55:57.138Z,97755
2018-01-26T17:58:23.944Z,97757
2018-01-26T18:00:51.467Z,97762
2018-01-26T18:03:18.169Z,97760
2018-01-26T18:05:44.875Z,97759
2018-01-26T18:08:11.597Z,97757
2018-01-26T18:10:38.347Z,97763
2018-01-26T18:13:05.124Z,97764
2018-01-26T18:15:31.809Z,97760
2018-01-26T18:17:58.505Z,97765
2018-01-26T18:20:25.243Z,97764
2018-01-26T18:22:52.098Z,97772
2018-01-26T18:25:19.598Z,97780
2018-01-26T18:27:46.360Z,97776
2018-01-26T18:30:13.110Z,97778
2018-01-26T18:32:39.859Z,97773
2018-01-26T18:35:06.633Z,97776
2018-01-26T18:37:33.495Z,97775
2018-01-26T18:40:00.934Z,97783
2018-01-26T18:42:27.670Z,97788
2018-01-26T18:44:54.396Z,97785
2018-01-26T18:47:21.084Z,97784
2018-01-26T18:49:47.823Z,97782
2018-01-26T18:52:14.574Z,97790
2018-01-26T18:54:42.039Z,97789
2018-01-26T18:57:09.514Z,97791
2018-01-26T18:59:36.269Z,97790
2018-01-26T19:02:02.973Z,97794
2018-01-26T19:04:29.848Z,97791
2018-01-26T19:06:56.579Z,97796
2018-01-26T19:09:24.065Z,97790
2018-01-26T19:11:50.766Z,97800
2018-01-26T19:14:17.461Z,97807
2018-01-26T19:16:44.411Z,97809
2018-01-26T19:19:11.112Z,97812
2018-01-26T19:21:37.806Z,97812
2018-01-26T19:24:04.566Z,97810
2018-01-26T19:26:31.253Z,97816
2018-01-26T19:28:58.708Z,97819
2018-01-26T19:31:26.395Z,97822
2018-01-26T19:33:53.312Z,97822
2018-01-26T19:36:20.089Z,97824
2018-01-26T19:38:47.554Z,97827
2018-01-26T19:41:14.274Z,97828
2018-01-26T19:43:40.969Z,97828
2018-01-26T19:46:14.744Z,97831
2018-01-26T19:48:41.836Z,97833
2018-01-26T19:51:09.330Z,97836
2018-01-26T19:53:36.435Z,97837
2018-01-26T19:56:03.198Z,97846
2018-01-26T19:58:30.149Z,97850
2018-01-26T20:00:57.090Z,97851
2018-01-26T20:03:29.986Z,97848
2018-01-26T20:06:02.874Z,97842
2018-01-26T20:08:35.713Z,97846
2018-01-26T20:11:02.475Z,97850
2018-01-26T20:13:29.206Z,97847
2018-01-26T20:15:59.846Z,97846
2018-01-26T20:18:26.831Z,97855
2018-01-26T20:20:54.844Z,97856
2018-01-26T20:23:21.763Z,97861
2018-01-26T20:25:48.925Z,97858
2018-01-26T20:28:16.011Z,97861
2018-01-26T20:30:42.899Z,97865
2018-01-26T20:33:09.614Z,97869
2018-01-26T20:35:37.316Z,97869
2018-01-26T20:38:04.953Z,97870
2018-01-26T20:40:31.819Z,97872
2018-01-26T20:42:58.816Z,97873
2018-01-26T20:45:27.416Z,97871
2018-01-26T20:47:57.226Z,97872
2018-01-26T20:50:23.968Z,97877
2018-01-26T20:52:50.790Z,97875
2018-01-26T20:55:17.633Z,97876
2018-01-26T20:57:44.854Z,97879
2018-01-26T21:00:11.626Z,97877
2018-01-26T21:02:38.650Z,97876
2018-01-26T21:05:05.383Z,97874
2018-01-26T21:07:32.435Z,97880
2018-01-26T21:09:59.191Z,97883
2018-01-26T21:12:26.205Z,97882
2018-01-26T21:14:52.979Z,97875
2018-01-26T21:17:19.700Z,97882
2018-01-26T21:19:47.179Z,97889
2018-01-26T21:22:14.817Z,97888
2018-01-26T21:24:41.560Z,97888
2018-01-26T21:27:08.239Z,97892
2018-01-26T21:29:35.082Z,97889
2018-01-26T21:32:01.778Z,97884
2018-01-26T21:34:28.446Z,97889
2018-01-26T21:36:56.349Z,97890
2018-01-26T21:39:23.934Z,97891
2018-01-26T21:41:50.691Z,97889
2018-01-26T21:44:17.438Z,97891
2018-01-26T21:46:44.381Z,97894
2018-01-26T21:49:11.119Z,97900
2018-01-26T21:51:37.822Z,97899
2018-01-26T21:54:05.323Z,97906
2018-01-26T21:56:32.018Z,97911
2018-01-26T21:58:59.460Z,97914
2018-01-26T22:01:26.152Z,97924
2018-01-26T22:03:53.939Z,97925
2018-01-26T22:09:20.904Z,97933
2018-01-26T22:11:47.735Z,97942
2018-01-26T22:14:14.491Z,97946
2018-01-26T22:16:41.177Z,97950
2018-01-26T22:19:07.923Z,97953
2018-01-26T22:21:34.614Z,97950
2018-01-26T22:24:01.300Z,97954
2018-01-26T22:26:28.102Z,97954
2018-01-26T22:28:54.785Z,97954
2018-01-26T22:31:21.443Z,97957
2018-01-26T22:33:48.169Z,97960
2018-01-26T22:36:14.834Z,97956
2018-01-26T22:38:41.570Z,97963
2018-01-26T22:41:08.286Z,97969
2018-01-26T22:43:34.978Z,97973
2018-01-26T22:46:02.447Z,97972
2018-01-26T22:48:29.918Z,97976
2018-01-26T22:50:57.410Z,97982
2018-01-26T22:53:24.144Z,97986
2018-01-26T22:55:50.881Z,97992
2018-01-26T22:58:17.636Z,98000
2018-01-26T23:00:44.306Z,98004
2018-01-26T23:03:11.087Z,98002
2018-01-26T23:05:38.575Z,97999
2018-01-26T23:08:05.353Z,97997
2018-01-26T23:10:32.247Z,97998
2018-01-26T23:12:59.737Z,97993
2018-01-26T23:15:26.545Z,97996
2018-01-26T23:17:53.998Z,98001
2018-01-26T23:20:21.602Z,98000
2018-01-26T23:22:48.366Z,97999
2018-01-26T23:25:15.090Z,98002
2018-01-26T23:27:41.774Z,98012
2018-01-26T23:30:08.494Z,98003
2018-01-26T23:32:35.249Z,98003
2018-01-26T23:35:01.990Z,98009
2018-01-26T23:37:28.708Z,98004
2018-01-26T23:39:55.427Z,98003
2018-01-26T23:42:22.837Z,98007
2018-01-26T23:44:49.550Z,98011
2018-01-26T23:47:16.314Z,98014
2018-01-26T23:49:42.987Z,98016
2018-01-26T23:52:09.672Z,98017
2018-01-26T23:54:36.430Z,98018
2018-01-26T23:57:03.089Z,98022
2018-01-26T23:59:29.756Z,98023
